createdAt,value
2019-01-03T00:02:03.068Z,1.20
2019-01-03T00:04:51.791Z,1.10
2019-01-03T00:07:40.370Z,1.20
2019-01-03T00:10:29.455Z,1.53
2019-01-03T00:13:18.335Z,5.33
2019-01-03T00:16:09.955Z,1.73
2019-01-03T00:18:59.076Z,1.40
2019-01-03T00:21:57.057Z,1.30
2019-01-03T00:25:01.974Z,1.27
2019-01-03T00:27:53.490Z,1.10
2019-01-03T00:30:58.665Z,1.30
2019-01-03T00:33:47.390Z,1.20
2019-01-03T00:36:36.101Z,1.30
2019-01-03T00:39:27.954Z,1.17
2019-01-03T00:42:28.577Z,1.20
2019-01-03T00:45:26.064Z,1.10
2019-01-03T00:48:14.866Z,1.30
2019-01-03T00:51:03.309Z,1.30
2019-01-03T00:54:07.928Z,1.10
2019-01-03T00:57:12.404Z,1.00
2019-01-03T01:00:01.160Z,1.60
2019-01-03T01:03:06.504Z,1.20
2019-01-03T01:06:01.170Z,1.10
2019-01-03T01:09:05.773Z,1.13
2019-01-03T01:11:57.631Z,1.10
2019-01-03T01:15:02.641Z,1.27
2019-01-03T01:17:57.482Z,1.30
2019-01-03T01:21:01.299Z,1.20
2019-01-03T01:24:06.615Z,1.33
2019-01-03T01:27:01.553Z,1.40
2019-01-03T01:29:58.981Z,1.30
2019-01-03T01:33:04.538Z,1.30
2019-01-03T01:36:11.158Z,1.17
2019-01-03T01:39:06.023Z,1.30
2019-01-03T01:41:54.711Z,1.40
2019-01-03T01:44:43.158Z,1.10
2019-01-03T01:47:47.967Z,1.20
2019-01-03T01:50:52.977Z,1.60
2019-01-03T01:53:50.613Z,1.30
2019-01-03T01:56:51.465Z,0.90
2019-01-03T01:59:42.574Z,1.20
2019-01-03T02:02:31.499Z,1.50
2019-01-03T02:05:29.672Z,1.30
2019-01-03T02:08:18.626Z,1.03
2019-01-03T02:11:23.869Z,1.30
2019-01-03T02:14:15.476Z,1.00
2019-01-03T02:17:12.855Z,1.20
2019-01-03T02:20:17.756Z,1.00
2019-01-03T02:23:06.485Z,1.10
2019-01-03T02:26:06.842Z,1.10
2019-01-03T02:28:55.550Z,1.17
2019-01-03T02:31:50.188Z,1.03
2019-01-03T02:34:55.142Z,1.20
2019-01-03T02:37:44.238Z,1.10
2019-01-03T02:40:33.008Z,1.20
2019-01-03T02:43:24.367Z,0.90
2019-01-03T02:46:24.829Z,1.33
2019-01-03T02:49:28.599Z,1.20
2019-01-03T02:52:23.137Z,0.90
2019-01-03T02:55:17.270Z,1.30
2019-01-03T02:58:06.040Z,1.13
2019-01-03T03:01:00.724Z,1.63
2019-01-03T03:03:58.110Z,4.07
2019-01-03T03:07:02.671Z,3.10
2019-01-03T03:09:57.326Z,2.80
2019-01-03T03:13:02.172Z,6.73
2019-01-03T03:15:50.908Z,10.67
2019-01-03T03:18:42.333Z,4.90
2019-01-03T03:21:31.329Z,1.87
2019-01-03T03:24:19.949Z,1.60
2019-01-03T03:27:08.648Z,1.47
2019-01-03T03:30:15.119Z,1.37
2019-01-03T03:33:19.153Z,1.40
2019-01-03T03:36:10.769Z,1.20
2019-01-03T03:38:59.526Z,1.40
2019-01-03T03:41:51.309Z,1.30
2019-01-03T03:44:42.575Z,1.30
2019-01-03T03:47:33.882Z,1.43
2019-01-03T03:50:40.829Z,1.30
2019-01-03T03:53:35.803Z,1.57
2019-01-03T03:56:42.566Z,0.97
2019-01-03T03:59:36.980Z,1.40
2019-01-03T04:02:34.613Z,1.30
2019-01-03T04:05:32.430Z,1.40
2019-01-03T04:08:38.688Z,1.30
2019-01-03T04:11:39.108Z,1.83
2019-01-03T04:14:44.321Z,1.20
2019-01-03T04:17:38.731Z,1.23
2019-01-03T04:20:30.284Z,1.30
2019-01-03T04:23:19.555Z,1.50
2019-01-03T04:26:24.378Z,1.40
2019-01-03T04:29:19.390Z,1.40
2019-01-03T04:32:10.921Z,1.50
2019-01-03T04:35:05.085Z,1.30
2019-01-03T04:38:09.503Z,1.40
2019-01-03T04:41:06.862Z,1.60
2019-01-03T04:43:57.899Z,1.30
2019-01-03T04:46:58.818Z,1.20
2019-01-03T04:49:47.870Z,1.13
2019-01-03T04:52:52.615Z,1.23
2019-01-03T04:55:57.492Z,1.00
2019-01-03T04:58:49.644Z,1.53
2019-01-03T05:02:05.566Z,1.00
2019-01-03T05:05:10.316Z,1.10
2019-01-03T05:08:01.807Z,1.50
2019-01-03T05:10:53.746Z,1.20
2019-01-03T05:13:50.802Z,1.50
2019-01-03T05:16:42.364Z,1.40
2019-01-03T05:19:42.630Z,1.43
2019-01-03T05:22:31.387Z,1.67
2019-01-03T05:25:35.890Z,1.40
2019-01-03T05:28:25.005Z,1.57
2019-01-03T05:31:25.814Z,1.50
2019-01-03T05:34:20.742Z,1.43
2019-01-03T05:37:12.345Z,1.53
2019-01-03T05:40:16.920Z,1.67
2019-01-03T05:43:05.975Z,1.40
2019-01-03T05:45:58.677Z,1.60
2019-01-03T05:48:53.506Z,1.80
2019-01-03T05:51:51.054Z,1.53
2019-01-03T05:54:55.282Z,1.37
2019-01-03T05:58:00.407Z,1.50
2019-01-03T06:00:54.865Z,1.70
2019-01-03T06:03:43.885Z,1.57
2019-01-03T06:06:35.085Z,1.80
2019-01-03T06:09:40.170Z,1.60
2019-01-03T06:12:31.729Z,1.70
2019-01-03T06:15:23.878Z,1.70
2019-01-03T06:18:27.631Z,2.00
2019-01-03T06:21:19.030Z,1.70
2019-01-03T06:24:10.393Z,1.97
2019-01-03T06:27:07.757Z,1.57
2019-01-03T06:30:12.366Z,1.70
2019-01-03T06:33:10.393Z,1.60
2019-01-03T06:36:07.921Z,1.70
2019-01-03T06:39:12.575Z,1.90
2019-01-03T06:42:18.908Z,2.23
2019-01-03T06:45:24.583Z,2.50
2019-01-03T06:48:29.461Z,1.80
2019-01-03T06:51:36.238Z,1.60
2019-01-03T06:54:28.174Z,5.77
2019-01-03T06:57:26.171Z,3.47
2019-01-03T07:00:15.394Z,4.67
2019-01-03T07:03:19.788Z,3.83
2019-01-03T07:06:23.333Z,1.93
2019-01-03T07:09:23.985Z,2.07
2019-01-03T07:12:12.552Z,1.80
2019-01-03T07:15:17.137Z,1.93
2019-01-03T07:18:05.929Z,2.27
2019-01-03T07:21:10.877Z,1.87
2019-01-03T07:24:14.465Z,2.27
2019-01-03T07:27:05.538Z,4.40
2019-01-03T07:30:10.318Z,3.60
2019-01-03T07:33:08.027Z,2.50
2019-01-03T07:35:56.406Z,2.20
2019-01-03T07:38:51.016Z,2.23
2019-01-03T07:41:46.409Z,2.20
2019-01-03T07:44:49.990Z,2.40
2019-01-03T07:47:54.356Z,2.23
2019-01-03T07:50:45.937Z,2.53
2019-01-03T07:53:50.599Z,3.90
2019-01-03T07:56:57.229Z,2.60
2019-01-03T07:59:51.853Z,2.20
2019-01-03T08:02:46.426Z,2.13
2019-01-03T08:05:46.468Z,2.20
2019-01-03T08:08:53.483Z,2.27
2019-01-03T08:11:58.109Z,2.40
2019-01-03T08:15:02.844Z,3.00
2019-01-03T08:18:00.281Z,17.37
2019-01-03T08:21:07.450Z,11.87
2019-01-03T08:23:56.082Z,8.40
2019-01-03T08:26:47.841Z,4.73
2019-01-03T08:29:42.195Z,3.80
2019-01-03T08:32:46.483Z,3.00
2019-01-03T08:35:44.323Z,3.10
2019-01-03T08:38:48.751Z,2.90
2019-01-03T08:41:43.643Z,2.60
2019-01-03T08:44:44.676Z,2.37
2019-01-03T08:47:39.420Z,2.50
2019-01-03T08:50:45.846Z,2.37
2019-01-03T08:53:35.011Z,2.00
2019-01-03T08:56:26.984Z,2.80
2019-01-03T08:59:32.085Z,2.50
2019-01-03T09:02:32.792Z,2.20
2019-01-03T09:05:37.702Z,2.47
2019-01-03T09:08:35.286Z,2.37
2019-01-03T09:11:36.196Z,2.17
2019-01-03T09:14:27.088Z,2.43
2019-01-03T09:17:24.228Z,2.50
2019-01-03T09:20:29.503Z,2.73
2019-01-03T09:23:36.327Z,2.87
2019-01-03T09:26:37.332Z,2.90
2019-01-03T09:29:43.901Z,3.00
2019-01-03T09:32:32.908Z,3.03
2019-01-03T09:35:27.763Z,2.93
2019-01-03T09:38:22.150Z,2.77
2019-01-03T09:41:26.824Z,2.80
2019-01-03T09:44:27.364Z,2.90
2019-01-03T09:47:14.918Z,2.93
2019-01-03T09:50:02.412Z,2.97
2019-01-03T09:52:49.828Z,3.00
2019-01-03T09:55:37.164Z,3.60
2019-01-03T09:58:24.284Z,3.60
2019-01-03T10:01:11.664Z,3.37
2019-01-03T10:03:59.123Z,3.13
2019-01-03T10:06:46.307Z,3.27
2019-01-03T10:09:33.770Z,3.13
2019-01-03T10:12:20.943Z,3.17
2019-01-03T10:15:08.298Z,2.73
2019-01-03T10:17:55.657Z,3.07
2019-01-03T10:20:43.038Z,3.40
2019-01-03T10:23:30.597Z,3.20
2019-01-03T10:26:18.776Z,3.60
2019-01-03T10:29:05.684Z,3.70
2019-01-03T10:31:52.676Z,3.80
2019-01-03T10:34:39.897Z,4.70
2019-01-03T10:37:27.330Z,4.70
2019-01-03T10:40:14.493Z,4.87
2019-01-03T10:43:01.659Z,4.73
2019-01-03T10:45:49.136Z,5.20
2019-01-03T10:48:36.473Z,6.17
2019-01-03T10:51:23.588Z,5.50
2019-01-03T10:54:11.112Z,4.67
2019-01-03T10:56:58.239Z,4.50
2019-01-03T10:59:45.381Z,4.43
2019-01-03T11:02:32.598Z,4.77
2019-01-03T11:05:19.969Z,5.00
2019-01-03T11:08:06.751Z,20.17
2019-01-03T11:10:53.917Z,7.50
2019-01-03T11:13:41.184Z,21.13
2019-01-03T11:16:28.274Z,19.23
2019-01-03T11:19:15.779Z,14.47
2019-01-03T11:22:02.997Z,11.17
2019-01-03T11:24:50.161Z,17.97
2019-01-03T11:27:37.218Z,48.50
2019-01-03T11:30:24.366Z,19.27
2019-01-03T11:33:12.017Z,9.30
2019-01-03T11:35:59.100Z,14.97
2019-01-03T11:38:46.546Z,8.60
2019-01-03T11:41:33.545Z,6.30
2019-01-03T11:44:20.771Z,6.30
2019-01-03T11:47:07.755Z,6.60
2019-01-03T11:49:55.982Z,11.40
2019-01-03T11:52:43.214Z,9.80
2019-01-03T11:55:30.331Z,5.90
2019-01-03T11:58:17.662Z,5.83
2019-01-03T12:01:04.954Z,5.77
2019-01-03T12:03:51.788Z,6.20
2019-01-03T12:06:39.317Z,7.03
2019-01-03T12:09:26.462Z,9.20
2019-01-03T12:12:13.499Z,8.23
2019-01-03T12:15:00.783Z,7.60
2019-01-03T12:17:48.491Z,7.23
2019-01-03T12:20:35.605Z,7.67
2019-01-03T12:23:22.638Z,7.43
2019-01-03T12:26:09.977Z,7.43
2019-01-03T12:28:57.652Z,9.13
2019-01-03T12:31:44.752Z,8.33
2019-01-03T12:34:31.811Z,7.23
2019-01-03T12:37:19.385Z,7.30
2019-01-03T12:40:07.581Z,9.60
2019-01-03T12:42:54.703Z,9.63
2019-01-03T12:45:42.350Z,7.20
2019-01-03T12:48:30.582Z,6.67
2019-01-03T12:51:17.654Z,6.13
2019-01-03T12:54:04.510Z,5.97
2019-01-03T12:56:51.703Z,5.53
2019-01-03T12:59:38.572Z,6.00
2019-01-03T13:02:26.031Z,6.63
2019-01-03T13:05:13.364Z,7.53
2019-01-03T13:08:00.707Z,9.80
2019-01-03T13:10:48.046Z,8.77
2019-01-03T13:13:35.089Z,6.97
2019-01-03T13:16:22.669Z,8.03
2019-01-03T13:19:09.640Z,22.27
2019-01-03T13:21:57.032Z,14.80
2019-01-03T13:24:44.279Z,23.07
2019-01-03T13:27:31.669Z,13.70
2019-01-03T13:30:19.044Z,7.63
2019-01-03T13:33:06.344Z,6.30
2019-01-03T13:35:53.779Z,7.87
2019-01-03T13:38:40.928Z,8.40
2019-01-03T13:41:28.200Z,12.00
2019-01-03T13:44:15.514Z,36.53
2019-01-03T13:47:02.353Z,39.87
2019-01-03T13:49:49.782Z,13.03
2019-01-03T13:52:36.653Z,8.27
2019-01-03T13:55:23.860Z,7.30
2019-01-03T13:58:10.917Z,5.70
2019-01-03T14:00:57.931Z,5.60
2019-01-03T14:03:45.180Z,5.23
2019-01-03T14:06:32.256Z,5.10
2019-01-03T14:09:19.653Z,5.70
2019-01-03T14:12:06.862Z,7.53
2019-01-03T14:14:53.764Z,6.47
2019-01-03T14:17:40.832Z,6.70
2019-01-03T14:20:28.231Z,5.63
2019-01-03T14:23:15.384Z,5.50
2019-01-03T14:26:02.543Z,5.40
2019-01-03T14:28:49.909Z,5.30
2019-01-03T14:31:37.082Z,5.07
2019-01-03T14:34:24.242Z,5.00
2019-01-03T14:37:11.432Z,5.27
2019-01-03T14:39:58.871Z,5.17
2019-01-03T14:42:46.244Z,5.90
2019-01-03T14:45:33.325Z,5.93
2019-01-03T14:48:20.744Z,9.40
2019-01-03T14:51:08.356Z,7.33
2019-01-03T14:53:55.724Z,6.80
2019-01-03T14:56:42.787Z,6.20
2019-01-03T14:59:30.315Z,6.73
2019-01-03T15:02:17.770Z,7.80
2019-01-03T15:05:05.316Z,6.90
2019-01-03T15:07:52.433Z,7.30
2019-01-03T15:10:39.697Z,6.60
2019-01-03T15:13:26.784Z,5.50
2019-01-03T15:16:14.017Z,6.00
2019-01-03T15:19:01.005Z,5.97
2019-01-03T15:21:48.116Z,6.10
2019-01-03T15:24:35.147Z,5.43
2019-01-03T15:27:22.274Z,5.10
2019-01-03T15:30:11.104Z,5.10
2019-01-03T15:32:57.893Z,5.67
2019-01-03T15:35:45.232Z,5.13
2019-01-03T15:38:32.412Z,5.30
2019-01-03T15:41:19.763Z,5.10
2019-01-03T15:44:06.665Z,5.50
2019-01-03T15:46:53.916Z,5.03
2019-01-03T15:49:40.816Z,5.77
2019-01-03T15:52:28.228Z,5.03
2019-01-03T15:55:15.426Z,5.03
2019-01-03T15:58:02.858Z,5.37
2019-01-03T16:00:50.281Z,5.63
2019-01-03T16:03:37.328Z,17.53
2019-01-03T16:06:24.844Z,9.57
2019-01-03T16:09:12.205Z,7.53
2019-01-03T16:11:59.350Z,7.37
2019-01-03T16:14:46.634Z,6.40
2019-01-03T16:17:34.004Z,8.27
2019-01-03T16:20:21.360Z,8.80
2019-01-03T16:23:08.308Z,9.27
2019-01-03T16:25:55.471Z,10.07
2019-01-03T16:28:42.599Z,12.50
2019-01-03T16:31:29.927Z,12.00
2019-01-03T16:34:17.316Z,18.77
2019-01-03T16:37:04.780Z,17.57
2019-01-03T16:39:52.049Z,11.90
2019-01-03T16:42:43.073Z,11.17
2019-01-03T16:45:30.303Z,12.27
2019-01-03T16:48:17.720Z,11.17
2019-01-03T16:51:05.415Z,10.70
2019-01-03T16:53:53.260Z,9.67
2019-01-03T16:56:40.492Z,9.47
2019-01-03T16:59:27.636Z,8.13
2019-01-03T17:02:15.578Z,7.73
2019-01-03T17:05:03.018Z,7.60
2019-01-03T17:07:51.214Z,7.60
2019-01-03T17:10:38.096Z,8.13
2019-01-03T17:13:25.320Z,7.97
2019-01-03T17:16:12.827Z,7.73
2019-01-03T17:19:00.142Z,7.93
2019-01-03T17:21:47.244Z,9.60
2019-01-03T17:24:34.594Z,8.10
2019-01-03T17:27:21.808Z,8.23
2019-01-03T17:30:10.521Z,7.60
2019-01-03T17:32:57.605Z,7.17
2019-01-03T17:35:44.992Z,6.87
2019-01-03T17:38:32.065Z,7.90
2019-01-03T17:41:19.393Z,7.27
2019-01-03T17:44:06.344Z,7.17
2019-01-03T17:46:53.755Z,7.07
2019-01-03T17:49:40.537Z,7.30
2019-01-03T17:52:28.001Z,7.00
2019-01-03T17:55:15.545Z,7.43
2019-01-03T17:58:02.930Z,7.87
2019-01-03T18:00:49.823Z,8.10
2019-01-03T18:03:37.216Z,7.60
2019-01-03T18:06:24.059Z,8.20
2019-01-03T18:09:11.526Z,8.00
2019-01-03T18:11:58.625Z,7.93
2019-01-03T18:14:46.938Z,13.67
2019-01-03T18:17:33.997Z,16.40
2019-01-03T18:20:21.062Z,12.07
2019-01-03T18:23:08.774Z,31.97
2019-01-03T18:25:56.249Z,32.83
2019-01-03T18:28:43.737Z,20.83
2019-01-03T18:31:30.838Z,16.33
2019-01-03T18:34:18.122Z,10.27
2019-01-03T18:37:05.377Z,12.97
2019-01-03T18:39:52.453Z,10.63
2019-01-03T18:42:39.960Z,13.27
2019-01-03T18:45:26.947Z,11.33
2019-01-03T18:48:13.981Z,13.77
2019-01-03T18:51:01.391Z,22.90
2019-01-03T18:53:48.709Z,21.07
2019-01-03T18:56:35.840Z,12.57
2019-01-03T18:59:23.232Z,18.97
2019-01-03T19:02:10.812Z,13.63
2019-01-03T19:04:57.873Z,9.90
2019-01-03T19:07:45.020Z,9.30
2019-01-03T19:10:32.445Z,8.53
2019-01-03T19:13:19.405Z,11.57
2019-01-03T19:16:06.830Z,10.30
2019-01-03T19:18:54.305Z,10.87
2019-01-03T19:21:41.593Z,12.60
2019-01-03T19:24:28.968Z,10.47
2019-01-03T19:27:15.839Z,9.80
2019-01-03T19:30:03.791Z,9.73
2019-01-03T19:32:50.773Z,9.43
2019-01-03T19:35:38.023Z,9.70
2019-01-03T19:38:25.550Z,10.07
2019-01-03T19:41:13.381Z,10.33
2019-01-03T19:44:00.900Z,10.13
2019-01-03T19:46:48.900Z,10.80
2019-01-03T19:49:36.545Z,13.03
2019-01-03T19:52:23.748Z,10.20
2019-01-03T19:55:11.306Z,9.97
2019-01-03T19:57:58.762Z,9.70
2019-01-03T20:00:46.269Z,9.47
2019-01-03T20:03:33.423Z,14.37
2019-01-03T20:06:20.898Z,22.43
2019-01-03T20:09:08.240Z,10.53
2019-01-03T20:11:55.498Z,15.53
2019-01-03T20:14:42.745Z,12.07
2019-01-03T20:17:29.923Z,10.63
2019-01-03T20:20:17.246Z,10.20
2019-01-03T20:23:04.423Z,11.00
2019-01-03T20:25:51.691Z,11.33
2019-01-03T20:28:42.663Z,10.53
2019-01-03T20:31:29.997Z,11.40
2019-01-03T20:34:17.706Z,10.80
2019-01-03T20:37:04.845Z,10.10
2019-01-03T20:39:52.394Z,11.57
2019-01-03T20:42:39.826Z,10.20
2019-01-03T20:45:26.871Z,9.90
2019-01-03T20:48:13.923Z,10.00
2019-01-03T20:51:01.499Z,10.10
2019-01-03T20:53:48.418Z,9.23
2019-01-03T20:56:35.411Z,9.57
2019-01-03T20:59:22.615Z,9.93
2019-01-03T21:02:09.835Z,10.13
2019-01-03T21:04:57.130Z,10.00
2019-01-03T21:07:44.709Z,9.37
2019-01-03T21:10:31.949Z,9.27
2019-01-03T21:13:19.330Z,8.90
2019-01-03T21:16:06.615Z,9.53
2019-01-03T21:18:54.307Z,9.63
2019-01-03T21:21:41.740Z,9.23
2019-01-03T21:24:29.020Z,9.13
2019-01-03T21:27:16.641Z,9.80
2019-01-03T21:30:05.573Z,9.20
2019-01-03T21:32:52.764Z,9.63
2019-01-03T21:35:39.968Z,9.30
2019-01-03T21:38:28.522Z,8.87
2019-01-03T21:41:21.240Z,9.13
2019-01-03T21:44:08.642Z,8.47
2019-01-03T21:46:56.149Z,9.73
2019-01-03T21:49:43.444Z,9.17
2019-01-03T21:52:31.064Z,8.93
2019-01-03T21:55:18.004Z,8.40
2019-01-03T21:58:07.500Z,8.40
2019-01-03T22:00:54.671Z,8.90
2019-01-03T22:03:41.869Z,9.33
2019-01-03T22:06:29.049Z,8.77
2019-01-03T22:09:16.897Z,9.30
2019-01-03T22:12:04.109Z,8.77
2019-01-03T22:14:51.543Z,8.33
2019-01-03T22:17:38.356Z,10.07
2019-01-03T22:20:25.711Z,8.63
2019-01-03T22:23:12.960Z,8.13
2019-01-03T22:25:59.921Z,8.53
2019-01-03T22:28:46.931Z,8.23
2019-01-03T22:31:34.209Z,8.83
2019-01-03T22:34:21.242Z,9.20
2019-01-03T22:37:08.324Z,9.10
2019-01-03T22:39:55.571Z,8.77
2019-01-03T22:42:42.629Z,8.87
2019-01-03T22:45:29.800Z,9.67
2019-01-03T22:48:16.615Z,9.40
2019-01-03T22:51:03.907Z,9.23
2019-01-03T22:53:50.985Z,9.13
2019-01-03T22:56:38.001Z,9.37
2019-01-03T22:59:25.374Z,9.27
2019-01-03T23:02:13.384Z,8.77
2019-01-03T23:05:00.452Z,8.80
2019-01-03T23:07:47.513Z,9.30
2019-01-03T23:10:34.702Z,8.70
2019-01-03T23:13:21.983Z,8.60
2019-01-03T23:16:09.464Z,9.17
2019-01-03T23:18:56.666Z,8.57
2019-01-03T23:21:44.774Z,8.43
2019-01-03T23:24:31.891Z,8.83
2019-01-03T23:27:19.076Z,8.73
2019-01-03T23:30:08.440Z,8.73
2019-01-03T23:32:55.910Z,8.60
2019-01-03T23:35:42.964Z,9.10
2019-01-03T23:38:30.489Z,8.50
2019-01-03T23:41:18.100Z,8.60
2019-01-03T23:44:05.473Z,8.70
2019-01-03T23:46:52.691Z,8.50
2019-01-03T23:49:40.270Z,9.20
2019-01-03T23:52:27.773Z,7.97
2019-01-03T23:55:15.344Z,8.57
2019-01-03T23:58:02.773Z,8.77
